Time;durP1;ratioP1;P1;durP2;ratioP2;P2;SDS_P1;SDS_P2;PMS_P1;PMS_P2;Temp;Humidity;BMP_temperature;BMP_pressure;BME280_temperature;BME280_humidity;BME280_pressure;Samples;Min_cycle;Max_cycle;Signal;HPM_P1;HPM_P2
2022/03/23 00:01:23;;;;;;;;;;;9.70;98.00;;;;;;5115681;28;19935;-81
2022/03/23 00:03:50;;;;;;;;;;;9.80;97.70;;;;;;5115656;28;19912;-83
2022/03/23 00:06:20;;;;;;;;;;;9.70;97.80;;;;;;5115433;28;19911;-80
2022/03/23 00:08:46;;;;;;;;;;;9.70;97.70;;;;;;5115607;28;19958;-81
2022/03/23 00:11:20;;;;;;;;;;;9.80;97.40;;;;;;5115708;28;19953;-84
2022/03/23 00:13:50;;;;;;;;;;;9.70;97.80;;;;;;5115420;28;19912;-83
2022/03/23 00:16:25;;;;;;;;;;;9.70;97.80;;;;;;5115276;28;19915;-83
2022/03/23 00:18:52;;;;;;;;;;;9.50;97.80;;;;;;5115567;28;19919;-83
2022/03/23 00:21:18;;;;;;;;;;;9.50;98.30;;;;;;5115288;28;20287;-81
2022/03/23 00:23:48;;;;;;;;;;;9.60;98.20;;;;;;5115224;28;19958;-81
2022/03/23 00:26:15;;;;;;;;;;;9.50;97.70;;;;;;5115231;28;19939;-81
2022/03/23 00:28:42;;;;;;;;;;;9.50;97.60;;;;;;5114987;28;19919;-82
2022/03/23 00:31:12;;;;;;;;;;;9.40;97.90;;;;;;5096739;28;20004;-84
2022/03/23 00:33:39;;;;;;;;;;;9.20;98.10;;;;;;5096677;28;19908;-83
2022/03/23 00:36:07;;;;;;;;;;;8.90;98.80;;;;;;5114963;28;19911;-81
2022/03/23 00:38:34;;;;;;;;;;;9.00;99.20;;;;;;5115006;28;20287;-80
2022/03/23 00:41:03;;;;;;;;;;;9.20;98.80;;;;;;5114883;28;19943;-81
2022/03/23 00:43:29;;;;;;;;;;;9.40;98.40;;;;;;5114798;28;19961;-83
2022/03/23 00:45:56;;;;;;;;;;;9.40;98.10;;;;;;5114745;28;20002;-83
2022/03/23 00:48:25;;;;;;;;;;;9.30;98.00;;;;;;5114564;28;19911;-81
2022/03/23 00:50:52;;;;;;;;;;;9.00;98.40;;;;;;5114901;28;20002;-83
2022/03/23 00:53:18;;;;;;;;;;;8.70;99.40;;;;;;5114619;28;19908;-82
2022/03/23 00:55:45;;;;;;;;;;;8.80;99.80;;;;;;5114705;28;20003;-80
2022/03/23 00:58:12;;;;;;;;;;;8.90;99.40;;;;;;5114490;28;19919;-81
2022/03/23 01:00:41;;;;;;;;;;;8.80;99.50;;;;;;5114651;28;19908;-81
2022/03/23 01:03:07;;;;;;;;;;;8.60;99.90;;;;;;5114558;28;20287;-83
2022/03/23 01:05:37;;;;;;;;;;;8.90;99.90;;;;;;5096074;28;20349;-81
2022/03/23 01:08:04;;;;;;;;;;;9.00;99.00;;;;;;5114252;28;19912;-82
2022/03/23 01:10:34;;;;;;;;;;;8.90;99.30;;;;;;5114396;28;20291;-82
2022/03/23 01:13:01;;;;;;;;;;;9.00;98.70;;;;;;5096051;28;19914;-82
2022/03/23 01:15:28;;;;;;;;;;;8.90;99.30;;;;;;5114748;28;19914;-81
2022/03/23 01:17:57;;;;;;;;;;;8.70;99.80;;;;;;5114020;28;20004;-80
2022/03/23 01:20:24;;;;;;;;;;;8.60;99.90;;;;;;5114526;28;19908;-82
2022/03/23 01:22:51;;;;;;;;;;;8.50;99.90;;;;;;5095897;28;19908;-82
2022/03/23 01:25:18;;;;;;;;;;;8.50;99.90;;;;;;5113728;28;19908;-81
2022/03/23 01:27:45;;;;;;;;;;;8.60;99.90;;;;;;5114041;28;19968;-80
2022/03/23 01:30:13;;;;;;;;;;;8.80;99.80;;;;;;5114103;28;20496;-82
2022/03/23 01:32:41;;;;;;;;;;;8.70;99.70;;;;;;5114327;28;19915;-80
2022/03/23 01:35:11;;;;;;;;;;;8.80;99.60;;;;;;5114115;28;19939;-80
2022/03/23 01:37:39;;;;;;;;;;;8.90;99.20;;;;;;5095520;28;20284;-82
2022/03/23 01:40:09;;;;;;;;;;;8.80;99.20;;;;;;5114249;28;19915;-82
2022/03/23 01:42:36;;;;;;;;;;;8.90;98.90;;;;;;5114474;28;19912;-82
2022/03/23 01:45:04;;;;;;;;;;;8.80;99.20;;;;;;5114040;28;19908;-83
2022/03/23 01:47:31;;;;;;;;;;;8.80;99.10;;;;;;5114045;28;20002;-80
2022/03/23 01:49:58;;;;;;;;;;;8.60;98.60;;;;;;5113875;28;20403;-81
2022/03/23 01:52:26;;;;;;;;;;;8.40;99.60;;;;;;5113857;28;19907;-82
2022/03/23 01:54:53;;;;;;;;;;;8.30;99.90;;;;;;5113784;28;19908;-82
2022/03/23 01:57:22;;;;;;;;;;;8.30;99.90;;;;;;5095512;28;19908;-84
2022/03/23 01:59:49;;;;;;;;;;;8.30;99.90;;;;;;5113789;28;19908;-83
2022/03/23 02:02:15;;;;;;;;;;;8.20;99.90;;;;;;5113802;28;19914;-83
2022/03/23 02:04:43;;;;;;;;;;;8.20;99.90;;;;;;5114014;28;19908;-82
2022/03/23 02:07:10;;;;;;;;;;;8.30;99.90;;;;;;5095383;28;19908;-82
2022/03/23 02:09:37;;;;;;;;;;;8.20;99.90;;;;;;5113729;28;20022;-80
2022/03/23 02:12:08;;;;;;;;;;;8.20;99.90;;;;;;5113693;28;19912;-81
2022/03/23 02:14:35;;;;;;;;;;;8.10;99.90;;;;;;5114159;28;19929;-81
2022/03/23 02:17:02;;;;;;;;;;;8.10;99.90;;;;;;5113577;28;19920;-83
2022/03/23 02:19:29;;;;;;;;;;;8.20;99.90;;;;;;5113724;28;19916;-82
2022/03/23 02:21:56;;;;;;;;;;;8.40;99.90;;;;;;5113638;28;19960;-81
2022/03/23 02:24:30;;;;;;;;;;;8.50;99.70;;;;;;5113731;28;19908;-84
2022/03/23 02:26:56;;;;;;;;;;;8.60;99.20;;;;;;5113734;28;20276;-81
2022/03/23 02:29:23;;;;;;;;;;;8.60;99.00;;;;;;5113494;28;19911;-81
2022/03/23 02:31:49;;;;;;;;;;;8.50;99.20;;;;;;5113568;28;19991;-81
2022/03/23 02:34:14;;;;;;;;;;;8.60;99.10;;;;;;5113561;28;20391;-82
2022/03/23 02:36:40;;;;;;;;;;;8.50;98.70;;;;;;5113816;28;19908;-81
2022/03/23 02:39:06;;;;;;;;;;;8.50;99.10;;;;;;5117064;28;20049;-83
2022/03/23 02:41:31;;;;;;;;;;;8.30;99.40;;;;;;5117224;28;19914;-81
2022/03/23 02:43:57;;;;;;;;;;;8.20;99.90;;;;;;5117538;28;19957;-79
2022/03/23 02:46:23;;;;;;;;;;;8.30;99.90;;;;;;5117223;28;19974;-82
2022/03/23 02:48:51;;;;;;;;;;;8.30;99.90;;;;;;5116943;28;19912;-81
2022/03/23 02:51:17;;;;;;;;;;;8.10;99.90;;;;;;5116982;28;19914;-82
2022/03/23 03:02:12;;;;;;;;;;;8.10;99.90;;;;;;5116829;28;19921;-81
2022/03/23 03:04:38;;;;;;;;;;;8.20;99.90;;;;;;5098396;28;19908;-81
2022/03/23 03:07:04;;;;;;;;;;;8.10;99.90;;;;;;5116685;28;19907;-81
2022/03/23 03:09:29;;;;;;;;;;;8.00;99.90;;;;;;5116545;28;20419;-81
2022/03/23 03:11:55;;;;;;;;;;;8.00;99.90;;;;;;5116602;28;19912;-80
2022/03/23 03:14:20;;;;;;;;;;;7.80;99.90;;;;;;5116555;28;20481;-83
2022/03/23 03:16:46;;;;;;;;;;;7.50;99.90;;;;;;5094612;28;19922;-84
2022/03/23 03:19:12;;;;;;;;;;;7.40;99.90;;;;;;5094752;28;20390;-81
2022/03/23 03:21:38;;;;;;;;;;;7.40;99.90;;;;;;5096028;28;19912;-82
2022/03/23 03:24:04;;;;;;;;;;;7.60;99.90;;;;;;5096224;28;19908;-80
2022/03/23 03:26:30;;;;;;;;;;;7.60;99.90;;;;;;5095924;28;19996;-82
2022/03/23 03:28:56;;;;;;;;;;;7.90;99.90;;;;;;5094580;28;19912;-80
2022/03/23 03:31:22;;;;;;;;;;;8.00;99.90;;;;;;5094390;28;19957;-80
2022/03/23 03:33:48;;;;;;;;;;;8.20;99.90;;;;;;5094453;28;20365;-83
2022/03/23 03:36:15;;;;;;;;;;;8.20;99.90;;;;;;5094495;28;19908;-81
2022/03/23 03:38:41;;;;;;;;;;;7.80;99.90;;;;;;5095917;28;20359;-81
2022/03/23 03:41:06;;;;;;;;;;;7.90;99.90;;;;;;5095812;28;19999;-83
2022/03/23 03:43:32;;;;;;;;;;;7.70;99.90;;;;;;5095661;28;19963;-79
2022/03/23 03:45:58;;;;;;;;;;;7.70;99.90;;;;;;5095622;28;19943;-83
2022/03/23 03:48:24;;;;;;;;;;;7.70;99.90;;;;;;5095139;28;20336;-83
2022/03/23 03:50:50;;;;;;;;;;;7.70;99.90;;;;;;5095483;28;19942;-80
2022/03/23 03:53:16;;;;;;;;;;;7.60;99.90;;;;;;5095581;28;19916;-81
2022/03/23 03:55:42;;;;;;;;;;;7.40;99.90;;;;;;5095314;28;20101;-80
2022/03/23 03:58:08;;;;;;;;;;;7.50;99.90;;;;;;5095396;28;20389;-80
2022/03/23 04:00:34;;;;;;;;;;;7.70;99.90;;;;;;5094022;28;20356;-81
2022/03/23 04:03:00;;;;;;;;;;;7.70;99.90;;;;;;5095303;28;19915;-81
2022/03/23 04:05:28;;;;;;;;;;;7.60;99.90;;;;;;5095253;28;19916;-81
2022/03/23 04:07:54;;;;;;;;;;;7.60;99.90;;;;;;5093709;28;19995;-81
2022/03/23 04:10:19;;;;;;;;;;;7.60;99.90;;;;;;5095342;28;19908;-79
2022/03/23 04:12:45;;;;;;;;;;;7.10;99.90;;;;;;5095096;28;20280;-80
2022/03/23 04:15:11;;;;;;;;;;;7.10;99.90;;;;;;5095034;28;20273;-82
2022/03/23 04:17:36;;;;;;;;;;;7.30;99.90;;;;;;5106053;28;19995;-82
2022/03/23 04:20:02;;;;;;;;;;;7.30;99.90;;;;;;5115128;28;20317;-83
2022/03/23 04:22:28;;;;;;;;;;;7.10;99.90;;;;;;5115606;28;19907;-80
2022/03/23 04:24:53;;;;;;;;;;;6.80;99.90;;;;;;5115172;28;19930;-81
2022/03/23 04:27:19;;;;;;;;;;;6.60;99.90;;;;;;5115197;28;19908;-80
2022/03/23 04:29:45;;;;;;;;;;;6.80;99.90;;;;;;5115172;28;19915;-81
2022/03/23 04:32:11;;;;;;;;;;;6.90;99.90;;;;;;5115136;28;19915;-83
2022/03/23 04:34:37;;;;;;;;;;;6.80;99.90;;;;;;5114998;28;19907;-82
2022/03/23 04:37:02;;;;;;;;;;;6.70;99.90;;;;;;5114944;28;19953;-82
2022/03/23 04:39:28;;;;;;;;;;;7.00;99.90;;;;;;5114964;28;19953;-82
2022/03/23 04:41:54;;;;;;;;;;;7.10;99.90;;;;;;5115022;28;19908;-83
2022/03/23 04:44:20;;;;;;;;;;;7.10;99.90;;;;;;5096590;28;19942;-82
2022/03/23 04:46:45;;;;;;;;;;;7.00;99.90;;;;;;5114944;28;19916;-81
2022/03/23 04:49:11;;;;;;;;;;;6.80;99.90;;;;;;5114881;28;19951;-79
2022/03/23 04:51:36;;;;;;;;;;;6.50;99.90;;;;;;5114821;28;19914;-81
2022/03/23 04:54:03;;;;;;;;;;;6.30;99.90;;;;;;5114603;28;19908;-82
2022/03/23 04:56:28;;;;;;;;;;;6.40;99.90;;;;;;5114620;28;19951;-82
2022/03/23 04:58:54;;;;;;;;;;;6.50;99.90;;;;;;5114838;28;19915;-83
2022/03/23 05:01:21;;;;;;;;;;;6.80;99.90;;;;;;5113810;28;20249;-83
2022/03/23 05:03:47;;;;;;;;;;;6.70;99.90;;;;;;5096272;28;20372;-80
2022/03/23 05:06:12;;;;;;;;;;;6.30;99.90;;;;;;5096361;28;20368;-81
2022/03/23 05:08:38;;;;;;;;;;;6.40;99.90;;;;;;5114369;28;19919;-81
2022/03/23 05:11:04;;;;;;;;;;;6.70;99.90;;;;;;5114415;28;19908;-81
2022/03/23 05:13:29;;;;;;;;;;;6.90;99.90;;;;;;5114362;28;19908;-81
2022/03/23 05:15:55;;;;;;;;;;;6.90;99.90;;;;;;5114369;28;19911;-83
2022/03/23 05:18:21;;;;;;;;;;;6.80;99.90;;;;;;5113919;28;19974;-82
2022/03/23 05:20:49;;;;;;;;;;;6.70;99.90;;;;;;5113475;28;21258;-82
2022/03/23 05:23:14;;;;;;;;;;;6.60;99.90;;;;;;5114381;28;19908;-81
2022/03/23 05:25:40;;;;;;;;;;;6.60;99.90;;;;;;5114246;28;20367;-80
2022/03/23 05:28:06;;;;;;;;;;;6.70;99.90;;;;;;5095893;28;19961;-82
2022/03/23 05:30:32;;;;;;;;;;;6.70;99.90;;;;;;5114186;28;19908;-82
2022/03/23 05:32:57;;;;;;;;;;;6.60;99.90;;;;;;5114511;28;20001;-82
2022/03/23 05:35:24;;;;;;;;;;;6.50;99.90;;;;;;5095884;28;19912;-81
2022/03/23 05:37:50;;;;;;;;;;;6.40;99.90;;;;;;5095832;28;19908;-82
2022/03/23 05:40:15;;;;;;;;;;;6.10;99.90;;;;;;5114092;28;20380;-80
2022/03/23 05:42:41;;;;;;;;;;;5.90;99.90;;;;;;5114414;28;20291;-79
2022/03/23 05:45:07;;;;;;;;;;;5.70;99.90;;;;;;5113998;28;19911;-82
2022/03/23 05:47:34;;;;;;;;;;;5.70;99.90;;;;;;5114042;28;19912;-80
2022/03/23 05:50:00;;;;;;;;;;;5.90;99.90;;;;;;5113870;28;19912;-84
2022/03/23 05:52:25;;;;;;;;;;;6.10;99.90;;;;;;5113940;28;20002;-80
2022/03/23 05:54:51;;;;;;;;;;;6.20;99.90;;;;;;5113845;28;19908;-82
2022/03/23 05:57:16;;;;;;;;;;;6.40;99.90;;;;;;5113915;28;19911;-79
2022/03/23 05:59:42;;;;;;;;;;;6.40;99.90;;;;;;5113841;28;20010;-83
2022/03/23 06:02:07;;;;;;;;;;;6.40;99.90;;;;;;5095613;28;19915;-82
2022/03/23 06:04:33;;;;;;;;;;;6.30;99.90;;;;;;5113892;28;19995;-81
2022/03/23 06:06:59;;;;;;;;;;;6.20;99.90;;;;;;5113831;28;19915;-81
2022/03/23 06:09:24;;;;;;;;;;;6.30;99.90;;;;;;5113732;28;20278;-80
2022/03/23 06:11:51;;;;;;;;;;;5.90;99.90;;;;;;5115726;28;19908;-79
2022/03/23 06:14:16;;;;;;;;;;;5.70;99.90;;;;;;5117888;28;20382;-82
2022/03/23 06:16:42;;;;;;;;;;;5.80;99.90;;;;;;5117554;28;19916;-81
2022/03/23 06:19:10;;;;;;;;;;;5.90;99.90;;;;;;5117868;28;20008;-80
2022/03/23 06:21:36;;;;;;;;;;;6.20;99.90;;;;;;5117730;28;19912;-83
2022/03/23 06:24:02;;;;;;;;;;;6.20;99.90;;;;;;5117568;28;19907;-82
2022/03/23 06:26:28;;;;;;;;;;;6.20;99.90;;;;;;5117794;28;20310;-80
2022/03/23 06:28:53;;;;;;;;;;;6.20;99.90;;;;;;5099144;28;19912;-80
2022/03/23 06:31:20;;;;;;;;;;;6.30;99.90;;;;;;5099148;28;19908;-81
2022/03/23 06:33:46;;;;;;;;;;;6.50;99.90;;;;;;5117533;28;19947;-80
2022/03/23 06:36:12;;;;;;;;;;;6.70;99.90;;;;;;5117330;28;19915;-82
2022/03/23 06:38:38;;;;;;;;;;;7.00;99.90;;;;;;5117670;28;19916;-82
2022/03/23 06:41:04;;;;;;;;;;;7.20;99.90;;;;;;5117302;28;19908;-81
2022/03/23 06:43:29;;;;;;;;;;;7.50;99.90;;;;;;5117206;28;19915;-82
2022/03/23 06:45:55;;;;;;;;;;;7.50;99.90;;;;;;5117178;28;19912;-80
2022/03/23 06:48:20;;;;;;;;;;;7.70;99.90;;;;;;5117117;28;19912;-82
2022/03/23 06:50:46;;;;;;;;;;;8.20;99.30;;;;;;5117028;28;19915;-80
2022/03/23 06:53:11;;;;;;;;;;;8.20;98.50;;;;;;5117218;28;20503;-82
2022/03/23 06:55:38;;;;;;;;;;;8.60;98.50;;;;;;5117022;28;20421;-82
2022/03/23 06:58:03;;;;;;;;;;;8.90;97.50;;;;;;5116883;28;19933;-82
2022/03/23 07:00:29;;;;;;;;;;;9.20;97.00;;;;;;5116781;28;19908;-82
2022/03/23 07:02:55;;;;;;;;;;;9.70;95.40;;;;;;5116985;28;19911;-80
2022/03/23 07:05:20;;;;;;;;;;;10.00;94.70;;;;;;5116766;28;20260;-83
2022/03/23 07:10:31;;;;;;;;;;;10.70;93.40;;;;;;5116721;28;19934;-81
2022/03/23 07:12:57;;;;;;;;;;;10.80;93.00;;;;;;5116852;28;19908;-81
2022/03/23 07:15:23;;;;;;;;;;;10.90;92.80;;;;;;5116744;28;19914;-85
2022/03/23 07:17:49;;;;;;;;;;;10.90;92.70;;;;;;5116320;28;19920;-84
2022/03/23 07:20:14;;;;;;;;;;;11.00;92.50;;;;;;5098293;28;19908;-80
2022/03/23 07:22:40;;;;;;;;;;;11.10;92.40;;;;;;5115984;28;19939;-81
2022/03/23 07:25:06;;;;;;;;;;;10.70;92.50;;;;;;5116194;28;20010;-82
2022/03/23 07:27:31;;;;;;;;;;;10.30;93.20;;;;;;5116329;28;19969;-82
2022/03/23 07:29:57;;;;;;;;;;;10.10;93.90;;;;;;5116349;28;19912;-82
2022/03/23 07:32:23;;;;;;;;;;;10.20;94.30;;;;;;5116259;28;19908;-83
2022/03/23 07:34:48;;;;;;;;;;;10.30;94.20;;;;;;5116278;28;20287;-82
2022/03/23 07:37:14;;;;;;;;;;;10.30;94.40;;;;;;5116175;28;19915;-81
2022/03/23 07:39:40;;;;;;;;;;;10.20;94.60;;;;;;5116132;28;19908;-82
2022/03/23 07:42:06;;;;;;;;;;;10.40;94.70;;;;;;5116114;28;19918;-80
2022/03/23 07:44:34;;;;;;;;;;;10.80;94.10;;;;;;5116024;28;19915;-82
2022/03/23 07:47:01;;;;;;;;;;;11.10;92.70;;;;;;5097711;28;20397;-81
2022/03/23 07:49:26;;;;;;;;;;;11.40;92.40;;;;;;5115827;28;19966;-85
2022/03/23 07:51:52;;;;;;;;;;;11.70;92.30;;;;;;5116110;28;19915;-80
2022/03/23 07:54:18;;;;;;;;;;;12.30;90.10;;;;;;5115834;28;19908;-82
2022/03/23 07:56:43;;;;;;;;;;;13.10;89.20;;;;;;5115753;28;19908;-81
2022/03/23 07:59:09;;;;;;;;;;;13.60;85.10;;;;;;5115715;28;19908;-80
2022/03/23 08:01:35;;;;;;;;;;;14.30;81.00;;;;;;5097361;28;19928;-82
2022/03/23 08:04:00;;;;;;;;;;;15.10;77.90;;;;;;5115735;28;19915;-83
2022/03/23 08:06:26;;;;;;;;;;;15.40;73.90;;;;;;5115533;28;19919;-82
2022/03/23 08:08:52;;;;;;;;;;;16.00;73.60;;;;;;5096889;28;19919;-82
2022/03/23 08:11:18;;;;;;;;;;;16.30;70.20;;;;;;5115524;28;19908;-82
2022/03/23 08:13:43;;;;;;;;;;;16.70;69.80;;;;;;5115438;28;20040;-82
2022/03/23 08:16:10;;;;;;;;;;;17.20;67.70;;;;;;5115506;28;19923;-82
2022/03/23 08:18:36;;;;;;;;;;;17.40;65.50;;;;;;5093185;28;19924;-81
2022/03/23 08:21:01;;;;;;;;;;;17.70;66.40;;;;;;5095134;28;19931;-82
2022/03/23 08:23:29;;;;;;;;;;;18.10;64.40;;;;;;5093580;28;19912;-84
2022/03/23 08:25:55;;;;;;;;;;;18.20;64.10;;;;;;5095117;28;19915;-82
2022/03/23 08:28:21;;;;;;;;;;;18.20;61.40;;;;;;5094725;28;19912;-83
2022/03/23 08:30:46;;;;;;;;;;;18.30;61.70;;;;;;5094682;28;20279;-85
2022/03/23 08:33:12;;;;;;;;;;;18.10;62.10;;;;;;5095003;28;19953;-81
2022/03/23 08:35:39;;;;;;;;;;;19.10;59.80;;;;;;5093673;28;19953;-84
2022/03/23 08:38:05;;;;;;;;;;;19.20;56.00;;;;;;5095237;28;19908;-81
2022/03/23 08:40:30;;;;;;;;;;;18.30;57.50;;;;;;5094668;28;19908;-84
2022/03/23 08:42:58;;;;;;;;;;;18.70;57.40;;;;;;5094502;28;20030;-83
2022/03/23 08:45:23;;;;;;;;;;;19.50;56.60;;;;;;5094818;28;19915;-84
2022/03/23 08:47:49;;;;;;;;;;;19.80;55.40;;;;;;5094506;28;19908;-83
2022/03/23 08:50:15;;;;;;;;;;;19.60;55.70;;;;;;5094304;28;20284;-85
2022/03/23 08:52:41;;;;;;;;;;;19.60;54.50;;;;;;5094679;28;19908;-82
2022/03/23 08:55:09;;;;;;;;;;;19.70;55.60;;;;;;5092230;28;20279;-82
2022/03/23 08:57:35;;;;;;;;;;;19.60;54.60;;;;;;5091542;28;20368;-83
2022/03/23 09:00:01;;;;;;;;;;;20.50;55.30;;;;;;5092691;28;19914;-83
2022/03/23 09:02:26;;;;;;;;;;;20.80;52.30;;;;;;5093518;28;20368;-82
2022/03/23 09:04:52;;;;;;;;;;;20.30;51.40;;;;;;5093453;28;19914;-84
2022/03/23 09:07:17;;;;;;;;;;;21.20;51.90;;;;;;5092163;28;20380;-83
2022/03/23 09:09:43;;;;;;;;;;;21.10;51.00;;;;;;5092271;28;19936;-81
2022/03/23 09:12:09;;;;;;;;;;;22.00;50.10;;;;;;5094013;28;20432;-84
2022/03/23 09:14:35;;;;;;;;;;;21.80;48.70;;;;;;5092772;28;19931;-82
2022/03/23 09:17:01;;;;;;;;;;;21.70;47.80;;;;;;5100101;28;19920;-85
2022/03/23 09:19:27;;;;;;;;;;;22.70;48.70;;;;;;5114598;28;19915;-83
2022/03/23 09:21:54;;;;;;;;;;;23.40;46.40;;;;;;5096009;28;19998;-83
2022/03/23 09:24:19;;;;;;;;;;;23.60;46.30;;;;;;5096009;28;19908;-82
2022/03/23 09:26:45;;;;;;;;;;;24.40;44.80;;;;;;5114311;28;20298;-85
2022/03/23 09:29:12;;;;;;;;;;;24.90;43.70;;;;;;5095886;28;19923;-83
2022/03/23 09:31:37;;;;;;;;;;;26.00;42.90;;;;;;5114167;28;20318;-84
2022/03/23 09:34:03;;;;;;;;;;;24.90;41.70;;;;;;5095880;28;19911;-84
2022/03/23 09:39:13;;;;;;;;;;;27.10;41.90;;;;;;5113878;28;19915;-84
2022/03/23 09:41:39;;;;;;;;;;;27.00;40.60;;;;;;5095809;28;19908;-83
2022/03/23 09:44:05;;;;;;;;;;;27.50;41.00;;;;;;5095769;28;19908;-84
2022/03/23 09:46:32;;;;;;;;;;;28.40;39.60;;;;;;5115293;28;19953;-83
2022/03/23 09:48:58;;;;;;;;;;;28.20;38.80;;;;;;5099867;28;19912;-82
2022/03/23 09:51:24;;;;;;;;;;;28.70;38.40;;;;;;5118168;28;19914;-80
2022/03/23 09:53:49;;;;;;;;;;;29.60;38.70;;;;;;5118122;28;19956;-80
2022/03/23 09:56:15;;;;;;;;;;;29.70;37.10;;;;;;5099712;28;19965;-80
2022/03/23 09:58:42;;;;;;;;;;;29.70;36.50;;;;;;5099774;28;19908;-80
2022/03/23 10:01:26;;;;;;;;;;;29.60;36.00;;;;;;5118018;28;19908;-81
2022/03/23 10:04:10;;;;;;;;;;;29.80;36.70;;;;;;5118279;28;19915;-82
2022/03/23 10:06:54;;;;;;;;;;;31.30;36.60;;;;;;5099570;28;19912;-79
2022/03/23 10:09:26;;;;;;;;;;;31.90;35.80;;;;;;5118025;28;19912;-81
2022/03/23 10:12:01;;;;;;;;;;;31.90;34.80;;;;;;5099516;28;19908;-80
2022/03/23 10:14:55;;;;;;;;;;;31.60;34.30;;;;;;5117829;28;19911;-82
2022/03/23 10:17:39;;;;;;;;;;;30.90;34.30;;;;;;5002157;28;19926;-81
2022/03/23 10:20:05;;;;;;;;;;;31.70;33.80;;;;;;5097404;28;19908;-82
2022/03/23 10:22:31;;;;;;;;;;;31.70;34.10;;;;;;5097240;28;19915;-81
2022/03/23 10:25:06;;;;;;;;;;;31.40;34.20;;;;;;5097220;28;20331;-82
2022/03/23 10:27:32;;;;;;;;;;;31.20;33.40;;;;;;5097296;28;19994;-82
2022/03/23 10:29:58;;;;;;;;;;;32.40;33.50;;;;;;5096996;28;19912;-80
2022/03/23 10:32:32;;;;;;;;;;;31.80;33.50;;;;;;5078867;28;19917;-80
2022/03/23 10:34:58;;;;;;;;;;;32.40;32.70;;;;;;5097192;28;19915;-82
2022/03/23 10:37:26;;;;;;;;;;;32.60;32.80;;;;;;5097149;28;19908;-80
2022/03/23 10:39:53;;;;;;;;;;;33.60;32.20;;;;;;5097169;28;19908;-80
2022/03/23 10:42:20;;;;;;;;;;;32.60;32.50;;;;;;5096836;28;19908;-80
2022/03/23 10:44:47;;;;;;;;;;;33.10;32.70;;;;;;5078574;28;19919;-80
2022/03/23 10:47:31;;;;;;;;;;;34.10;32.30;;;;;;5078519;28;19995;-79
2022/03/23 10:49:57;;;;;;;;;;;33.00;31.70;;;;;;5096728;28;19957;-80
2022/03/23 10:52:24;;;;;;;;;;;34.10;31.20;;;;;;5078522;28;19908;-80
2022/03/23 10:54:53;;;;;;;;;;;34.90;31.60;;;;;;5096673;28;19908;-80
2022/03/23 10:57:19;;;;;;;;;;;34.30;30.80;;;;;;5078022;28;20283;-83
2022/03/23 10:59:45;;;;;;;;;;;34.60;31.30;;;;;;5095749;28;19908;-81
2022/03/23 11:02:11;;;;;;;;;;;33.40;31.20;;;;;;5096579;28;19934;-81
2022/03/23 11:04:42;;;;;;;;;;;32.50;31.60;;;;;;5096466;28;19912;-82
2022/03/23 11:07:21;;;;;;;;;;;32.80;30.60;;;;;;5096419;28;19908;-79
2022/03/23 11:18:12;;;;;;;;;;;32.40;32.30;;;;;;5110462;28;20425;-82
2022/03/23 11:20:58;;;;;;;;;;;33.00;30.90;;;;;;5116536;28;19908;-81
2022/03/23 11:23:25;;;;;;;;;;;32.80;31.20;;;;;;5097707;28;19908;-82
2022/03/23 11:25:55;;;;;;;;;;;33.00;31.30;;;;;;5098087;28;19908;-80
2022/03/23 11:28:21;;;;;;;;;;;32.90;31.10;;;;;;5116376;28;19911;-82
2022/03/23 11:30:47;;;;;;;;;;;31.90;30.80;;;;;;5116541;28;19957;-81
2022/03/23 11:33:17;;;;;;;;;;;32.70;32.00;;;;;;5097955;28;19908;-82
2022/03/23 11:35:49;;;;;;;;;;;33.20;31.90;;;;;;5116209;28;20003;-82
2022/03/23 11:38:16;;;;;;;;;;;33.60;30.60;;;;;;5116279;28;19911;-82
2022/03/23 11:40:42;;;;;;;;;;;34.10;30.30;;;;;;5116111;28;20002;-79
2022/03/23 11:43:11;;;;;;;;;;;34.30;31.20;;;;;;5116255;28;20414;-81
2022/03/23 11:45:42;;;;;;;;;;;33.60;30.00;;;;;;5116086;28;20015;-80
2022/03/23 11:48:13;;;;;;;;;;;33.90;31.40;;;;;;5116073;28;19907;-81
2022/03/23 11:50:48;;;;;;;;;;;33.50;30.60;;;;;;5116460;28;19947;-81
2022/03/23 11:53:43;;;;;;;;;;;34.60;31.70;;;;;;5116119;28;20004;-81
2022/03/23 11:56:09;;;;;;;;;;;35.40;29.90;;;;;;5075928;28;19912;-80
2022/03/23 11:58:37;;;;;;;;;;;33.40;30.50;;;;;;5097503;28;19908;-80
2022/03/23 12:01:12;;;;;;;;;;;35.00;31.20;;;;;;5115901;28;20360;-81
2022/03/23 12:03:41;;;;;;;;;;;35.70;30.70;;;;;;5097334;28;19998;-79
2022/03/23 12:06:20;;;;;;;;;;;35.60;31.70;;;;;;5115571;28;19915;-80
2022/03/23 12:08:48;;;;;;;;;;;37.20;30.00;;;;;;5097060;28;19916;-80
2022/03/23 12:11:32;;;;;;;;;;;37.60;30.20;;;;;;5115851;28;19908;-80
2022/03/23 12:13:58;;;;;;;;;;;37.90;30.00;;;;;;5115781;28;19987;-79
2022/03/23 12:16:42;;;;;;;;;;;36.60;29.40;;;;;;5115190;28;19953;-79
2022/03/23 12:19:08;;;;;;;;;;;37.20;30.00;;;;;;5115821;28;20380;-80
2022/03/23 12:21:53;;;;;;;;;;;36.90;29.70;;;;;;5097018;28;19908;-82
2022/03/23 12:24:28;;;;;;;;;;;36.70;30.30;;;;;;5096969;28;20348;-80
2022/03/23 12:26:56;;;;;;;;;;;37.30;29.70;;;;;;5115263;28;19908;-82
2022/03/23 12:29:22;;;;;;;;;;;37.90;29.40;;;;;;5115105;28;20384;-81
2022/03/23 12:31:47;;;;;;;;;;;37.60;30.00;;;;;;5096879;28;19951;-81
2022/03/23 12:34:18;;;;;;;;;;;37.30;29.60;;;;;;5115016;28;19907;-81
2022/03/23 12:36:57;;;;;;;;;;;37.10;30.00;;;;;;5115208;28;19946;-79
2022/03/23 12:39:32;;;;;;;;;;;37.50;29.20;;;;;;5115162;28;19907;-83
2022/03/23 12:41:59;;;;;;;;;;;38.30;29.40;;;;;;5115185;28;19994;-80
2022/03/23 12:44:33;;;;;;;;;;;36.90;29.60;;;;;;5114958;28;19989;-82
2022/03/23 12:47:04;;;;;;;;;;;37.90;29.50;;;;;;5096301;28;19915;-80
2022/03/23 12:58:11;;;;;;;;;;;36.80;29.20;;;;;;5114363;28;19931;-83
2022/03/23 13:00:38;;;;;;;;;;;37.40;29.30;;;;;;5114828;28;19911;-80
2022/03/23 13:03:07;;;;;;;;;;;37.10;29.30;;;;;;5096306;28;19908;-80
2022/03/23 13:05:33;;;;;;;;;;;37.40;29.10;;;;;;5114538;28;19908;-81
2022/03/23 13:07:59;;;;;;;;;;;37.80;29.20;;;;;;5114496;28;19908;-81
2022/03/23 13:10:25;;;;;;;;;;;38.40;29.10;;;;;;5096107;28;19981;-80
2022/03/23 13:12:51;;;;;;;;;;;37.90;29.10;;;;;;5096171;28;20322;-82
2022/03/23 13:15:17;;;;;;;;;;;39.00;28.30;;;;;;5114393;28;20367;-81
2022/03/23 13:17:44;;;;;;;;;;;39.30;28.20;;;;;;5114139;28;19919;-79
2022/03/23 13:20:11;;;;;;;;;;;39.10;28.40;;;;;;5114351;28;19908;-81
2022/03/23 13:22:41;;;;;;;;;;;39.50;28.30;;;;;;5113735;28;19971;-80
2022/03/23 13:25:10;;;;;;;;;;;39.90;28.70;;;;;;5114399;28;19915;-80
2022/03/23 13:27:37;;;;;;;;;;;38.70;29.30;;;;;;5095949;28;19951;-79
2022/03/23 13:30:04;;;;;;;;;;;36.70;28.70;;;;;;5114167;28;19943;-80
2022/03/23 13:32:33;;;;;;;;;;;38.00;28.80;;;;;;5114128;28;19915;-81
2022/03/23 13:34:59;;;;;;;;;;;37.00;29.30;;;;;;5114180;28;19961;-80
2022/03/23 13:37:25;;;;;;;;;;;37.80;29.50;;;;;;5095904;28;19912;-81
2022/03/23 13:39:51;;;;;;;;;;;37.30;28.40;;;;;;5095838;28;19908;-79
2022/03/23 13:45:09;;;;;;;;;;;37.00;29.00;;;;;;5114322;28;20386;-81
2022/03/23 13:47:41;;;;;;;;;;;37.90;28.50;;;;;;5114008;28;20376;-81
2022/03/23 13:50:08;;;;;;;;;;;39.00;28.60;;;;;;5095627;28;19916;-81
2022/03/23 13:52:33;;;;;;;;;;;38.30;28.70;;;;;;5114240;28;19908;-81
2022/03/23 13:54:59;;;;;;;;;;;38.50;28.60;;;;;;5113982;28;20382;-81
2022/03/23 13:57:31;;;;;;;;;;;39.20;28.60;;;;;;5114250;28;19912;-82
2022/03/23 13:59:57;;;;;;;;;;;39.00;27.70;;;;;;5095614;28;19934;-82
2022/03/23 14:02:26;;;;;;;;;;;37.10;28.40;;;;;;5114047;28;19915;-81
2022/03/23 14:04:52;;;;;;;;;;;36.30;29.20;;;;;;5113846;28;20371;-80
2022/03/23 14:07:18;;;;;;;;;;;36.50;28.30;;;;;;5114087;28;19915;-80
2022/03/23 14:09:44;;;;;;;;;;;37.10;28.80;;;;;;5113781;28;20014;-80
2022/03/23 14:12:11;;;;;;;;;;;36.50;28.20;;;;;;5113782;28;19908;-80
2022/03/23 14:14:41;;;;;;;;;;;35.80;28.90;;;;;;5113790;28;19952;-81
2022/03/23 14:17:09;;;;;;;;;;;34.60;28.40;;;;;;5113646;28;19924;-81
2022/03/23 14:19:35;;;;;;;;;;;34.50;28.30;;;;;;5095480;28;19908;-80
2022/03/23 14:22:03;;;;;;;;;;;34.10;29.70;;;;;;5113967;28;19914;-82
2022/03/23 14:24:34;;;;;;;;;;;33.70;29.20;;;;;;5113680;28;19931;-79
2022/03/23 14:27:11;;;;;;;;;;;33.80;29.20;;;;;;5113746;28;20007;-80
2022/03/23 14:29:44;;;;;;;;;;;33.50;28.90;;;;;;5113545;28;19954;-82
2022/03/23 14:32:11;;;;;;;;;;;32.90;29.70;;;;;;5114517;28;19908;-80
2022/03/23 14:34:38;;;;;;;;;;;31.90;29.60;;;;;;5099132;28;20317;-81
2022/03/23 14:37:04;;;;;;;;;;;31.50;30.70;;;;;;5117360;28;19998;-80
2022/03/23 14:39:37;;;;;;;;;;;31.00;30.20;;;;;;5117566;28;19943;-81
2022/03/23 14:42:06;;;;;;;;;;;30.50;31.00;;;;;;5117457;28;19915;-81
2022/03/23 14:44:34;;;;;;;;;;;30.10;30.70;;;;;;5117214;28;19907;-81
2022/03/23 14:47:01;;;;;;;;;;;29.90;31.40;;;;;;5098895;28;19908;-80
2022/03/23 14:49:36;;;;;;;;;;;29.80;31.10;;;;;;5117225;28;20434;-80
2022/03/23 14:52:02;;;;;;;;;;;30.70;30.70;;;;;;5117179;28;19961;-80
2022/03/23 14:54:28;;;;;;;;;;;30.90;30.10;;;;;;5117054;28;19946;-82
2022/03/23 14:56:54;;;;;;;;;;;30.70;31.10;;;;;;5117266;28;19908;-80
2022/03/23 14:59:21;;;;;;;;;;;30.40;30.10;;;;;;5117143;28;19958;-82